Putnam Township, Michigan
Current Conditions -  °F | °C
As of 12:55 PM on Saturday 25 Oct 2014 (Local Time) from KOZW Reporting Station
Haze Haze  
Wind Chill: 59°   Ceiling: 1800
Heat Index: 59°   Visibility: 5mi
Dew Point: 52°   Wind: 15mph
Humidity: 79%   Direction: 260°W
Pressure: 29.81"   Gusts: 21mph
Location:  42.4646°N, 83.948°W
Report Text: KOZW 251655Z AUTO 26013G18KT 5SM HZ SCT013 BKN018 OVC024 15/11 A2981 RMK AO2 T01480112
Loading
Personal Weather Stations






























Interactive Weather Map
Tropical Storm Tracking
New forecast layout! Learn more

10-Day Weather Forecast

Advertisements
Track Severe Weather on mobile